NCAR-RAP Real-Time Weather Data

Output produced by METARs form (17 July 2018  09:31 UTC)
found at http://weather.rap.ucar.edu/surface/
 
KFZY 170854Z AUTO 18004KT 9SM BKN070 OVC090 22/19 A2981 RMK AO2 LTG DSNT SE AND S RAB10E42 SLP090 P0006 60006 T02170194 56007
KFZY 170754Z AUTO 00000KT 10SM BKN050 BKN065 BKN080 22/19 A2981 RMK AO2 RAE38 SLP091 P0000 T02220194
KFZY 170654Z AUTO 00000KT 10SM -RA FEW090 SCT110 23/19 A2981 RMK AO2 SLP092 P0000 T02280194
KFZY 170554Z AUTO 20009KT 10SM -RA FEW120 24/19 A2983 RMK AO2 LTG DSNT NE RAE0457B52 SLP097 P0000 60000 T02440189 10261 20233 57006
KFZY 170454Z AUTO 19010KT 10SM -RA SCT060 OVC075 24/19 A2983 RMK AO2 RAB46 SLP098 P0000 T02390194 403500167
KFZY 170354Z AUTO 14004KT 10SM SCT075 23/19 A2985 RMK AO2 SLP104 T02330194
KFZY 170254Z AUTO 14004KT 10SM CLR 24/19 A2985 RMK AO2 SLP104 T02390189 53003
KFZY 170154Z AUTO 00000KT 10SM FEW120 25/19 A2984 RMK AO2 SLP100 T02500189
KFZY 170054Z AUTO 00000KT 10SM CLR 25/20 A2985 RMK AO2 SLP106 T02500200
KFZY 162354Z AUTO 00000KT 10SM CLR 26/20 A2984 RMK AO2 LTG DSNT E AND SE RAB02E29 SLP102 P0000 60000 T02610200 10350 20261 56001
KFZY 162254Z AUTO 28007G16KT 10SM SCT065 BKN110 29/19 A2985 RMK AO2 LTG DSNT S SLP106 T02890194
KFZY 162154Z AUTO 03007KT 10SM FEW055 32/19 A2983 RMK AO2 LTG DSNT SW AND W SLP099 T03170194
KFZY 162054Z AUTO VRB03KT 10SM FEW060 34/17 A2984 RMK AO2 SLP102 T03440172 56020
KFZY 161954Z AUTO VRB04KT 10SM FEW055 34/17 A2986 RMK AO2 SLP109 T03390172
KFZY 161854Z AUTO 20007KT 180V240 10SM FEW055 34/17 A2988 RMK AO2 SLP115 T03440172
KFZY 161754Z AUTO 22008KT 10SM CLR 34/18 A2991 RMK AO2 SLP123 T03440178 10344 20217 58015
KFZY 161654Z AUTO 20008KT 10SM CLR 33/19 A2992 RMK AO2 SLP129 T03330189
KFZY 161554Z AUTO 24006KT 10SM CLR 32/19 A2994 RMK AO2 SLP136 T03170189
KFZY 161454Z AUTO 00000KT 10SM CLR 31/20 A2995 RMK AO2 SLP139 T03060200 58009
KFZY 161354Z AUTO 19005KT 10SM CLR 28/19 A2996 RMK AO2 SLP143 T02830189
KFZY 161254Z AUTO VRB03KT 9SM CLR 25/19 A2997 RMK AO2 SLP146 T02500189
KFZY 161154Z AUTO 00000KT 6SM HZ FEW050 22/19 A2998 RMK AO2 SLP148 T02170189 10217 20167 53003
KFZY 161054Z AUTO 00000KT 6SM HZ FEW049 21/18 A2997 RMK AO2 SLP146 T02060178
KFZY 160954Z AUTO 00000KT 5SM BR FEW049 18/16 A2997 RMK AO2 SLP144 T01830161
KFZY 160854Z AUTO 12003KT 6SM BR FEW049 18/16 A2997 RMK AO2 SLP145 T01780156 53001
KFZY 160801Z AUTO 00000KT 3SM BR CLR 17/15 A2996 RMK AO2 T01670150
KFZY 160754Z AUTO 11003KT 2 1/2SM BR CLR 17/15 A2996 RMK AO2 SLP144 T01720150
KFZY 160750Z AUTO 00000KT 3SM BR CLR 17/16 A2996 RMK AO2
KFZY 160721Z AUTO 00000KT 2 1/2SM BR CLR 18/16 A2997 RMK AO2 T01780156
KFZY 160654Z AUTO 00000KT 3SM BR CLR 17/15 A2997 RMK AO2 SLP145 T01720150
KFZY 160626Z AUTO 00000KT 3SM BR CLR 17/15 A2996 RMK AO2 T01720150
KFZY 160554Z AUTO 00000KT 2SM BR CLR 17/15 A2997 RMK AO2 SLP144 T01720150 10272 20167 55004
KFZY 160551Z AUTO 00000KT 2SM BR CLR 17/15 A2997 RMK AO2
KFZY 160538Z AUTO 00000KT 3SM BR CLR 17/15 A2997 RMK AO2 T01720150
KFZY 160529Z AUTO 00000KT 1 3/4SM BR CLR 18/16 A2997 RMK AO2 VIS 1V4 T01780156
KFZY 160515Z AUTO 00000KT 3SM BR CLR 17/15 A2997 RMK AO2 T01670150
KFZY 160507Z AUTO 11003KT 2 1/2SM BR CLR 17/15 A2997 RMK AO2 T01720150
KFZY 160454Z AUTO 00000KT 3SM BR CLR 18/16 A2998 RMK AO2 SLP148 T01830161 403220178
KFZY 160449Z AUTO 00000KT 3SM BR CLR 18/16 A2998 RMK AO2
KFZY 160438Z AUTO 00000KT 1 3/4SM BR CLR 18/16 A2998 RMK AO2 VIS 1V4 T01780161
KFZY 160431Z AUTO 12003KT 4SM BR CLR 18/16 A2998 RMK AO2 T01780161
KFZY 160423Z AUTO 00000KT 2 1/2SM BR CLR 19/17 A2998 RMK AO2 T01890167
KFZY 160401Z AUTO 00000KT 3SM BR CLR 18/16 A2998 RMK AO2 T01780161
KFZY 160354Z AUTO 05003KT 2 1/2SM BR CLR 18/16 A2998 RMK AO2 SLP149 T01830161
KFZY 160254Z AUTO 00000KT 6SM HZ CLR 19/17 A2997 RMK AO2 SLP146 T01940167 50005
KFZY 160154Z AUTO 00000KT 9SM CLR 21/18 A2997 RMK AO2 SLP146 T02110178
KFZY 160054Z AUTO 00000KT 9SM CLR 23/18 A2995 RMK AO2 SLP140 T02280183
KFZY 152354Z AUTO 36003KT 10SM CLR 27/18 A2995 RMK AO2 SLP141 T02720178 10322 20272 56003
KFZY 152254Z AUTO 32005KT 10SM CLR 29/17 A2996 RMK AO2 SLP141 T02890167
KFZY 152154Z AUTO 33007KT 10SM CLR 30/17 A2995 RMK AO2 SLP140 T03000167
KFZY 152054Z AUTO 30009KT 10SM CLR 30/17 A2996 RMK AO2 SLP143 T03000172 58005
KFZY 151954Z AUTO 34010KT 10SM CLR 31/18 A2997 RMK AO2 SLP146 T03110178
KFZY 151854Z AUTO 32010KT 10SM BKN044 32/18 A2998 RMK AO2 SLP148 T03170178
KFZY 151754Z AUTO 32005KT 10SM BKN042 30/17 A2998 RMK AO2 SLP148 T03000172 10322 20228 58006
KFZY 151654Z AUTO 22006KT 10SM CLR 30/17 A2999 RMK AO2 SLP152 T03000172
KFZY 151554Z AUTO VRB04KT 10SM CLR 28/18 A2999 RMK AO2 SLP153 T02830178
KFZY 151454Z AUTO 00000KT 10SM CLR 27/18 A3000 RMK AO2 SLP154 T02720178 55006
KFZY 151354Z AUTO VRB03KT 10SM CLR 27/18 A2999 RMK AO2 SLP154 T02670183
KFZY 151254Z AUTO 34003KT 10SM CLR 25/19 A3001 RMK AO2 SLP160 T02500194
KFZY 151154Z AUTO 20004KT 6SM HZ OVC070 23/19 A3001 RMK AO2 SLP160 60001 70009 T02280194 10228 20200 50004
KFZY 151128Z AUTO 00000KT 3SM BR OVC070 22/20 A3002 RMK AO2 T02220200
KFZY 151108Z AUTO 00000KT 2SM BR OVC070 22/19 A3001 RMK AO2 T02170194
KFZY 151054Z AUTO 00000KT 1 1/2SM BR OVC065 21/19 A3001 RMK AO2 SLP161 T02110189
KFZY 151028Z AUTO 00000KT 1 1/2SM BR SCT050 OVC065 21/18 A3001 RMK AO2 T02060183
KFZY 151019Z AUTO 00000KT 1SM BR BKN060 BKN070 20/18 A3001 RMK AO2 T02000183
KFZY 150954Z AUTO 00000KT 1/2SM FG OVC070 20/18 A3000 RMK AO2 SLP157 T02000183
KFZY 150950Z AUTO 00000KT 1/2SM FG OVC070 21/18 A3000 RMK AO2
KFZY 150943Z AUTO 00000KT 1SM BR BKN070 21/18 A3000 RMK AO2 T02060183
KFZY 150932Z AUTO 00000KT 2SM BR SCT070 BKN110 21/18 A3000 RMK AO2 T02060183
KFZY 150919Z AUTO 00000KT 1 3/4SM BR SCT070 BKN110 21/18 A3000 RMK AO2 VIS 3/4V4 T02060183
KFZY 150854Z AUTO 00000KT 5SM BR OVC070 21/19 A3000 RMK AO2 SLP156 60001 T02110189 56009
KFZY 150832Z AUTO 18003KT 4SM BR BKN075 OVC095 21/18 A3000 RMK AO2 T02060183
KFZY 150819Z AUTO 16003KT 2SM BR BKN075 OVC095 21/18 A3000 RMK AO2 T02060183
KFZY 150754Z AUTO 00000KT 5SM BR FEW075 OVC100 21/18 A3000 RMK AO2 RAE0658B21E42 SLP156 P0000 T02060183
KFZY 150729Z AUTO 00000KT 4SM -RA BR OVC100 21/18 A3000 RMK AO2 RAE0658B21 P0000 T02060183
KFZY 150715Z AUTO 00000KT 2 1/2SM BR OVC100 21/19 A3001 RMK AO2 RAE0658 P0000 T02060189
KFZY 150654Z AUTO 00000KT 6SM -RA BR BKN095 OVC110 21/19 A3001 RMK AO2 RAE14B49 SLP159 P0001 T02060189
KFZY 150554Z AUTO 24004KT 4SM -RA SCT065 OVC090 22/19 A3003 RMK AO2 RAB08 SLP164 P0008 60008 T02170189 10244 20217 50003
KFZY 150549Z AUTO 26004KT 2 1/2SM +RA BKN070 OVC090 22/19 A3003 RMK AO2 RAB08 P0008
KFZY 150454Z AUTO 22003KT 10SM OVC095 23/18 A3003 RMK AO2 SLP164 T02330178 403110222
KFZY 150354Z AUTO 20004KT 10SM OVC100 24/18 A3002 RMK AO2 SLP161 T02390178
KFZY 150254Z AUTO 20003KT 10SM SCT027 OVC110 23/18 A3002 RMK AO2 SLP163 T02330183 53007
KFZY 150154Z AUTO 17003KT 10SM OVC100 23/18 A3002 RMK AO2 SLP162 T02280183
KFZY 150054Z AUTO 00000KT 10SM OVC110 24/18 A3000 RMK AO2 SLP157 T02390178
KFZY 142354Z AUTO 24004KT 10SM CLR 24/18 A3000 RMK AO2 SLP157 60000 T02440183 10311 20244 57013
KFZY 142254Z AUTO 25003KT 10SM SCT110 25/18 A3002 RMK AO2 RAB24E37 SLP162 P0000 T02500178
KFZY 142154Z AUTO 00000KT 10SM FEW055 BKN110 26/18 A3003 RMK AO2 RAB06E48 SLP166 P0000 T02560178
KFZY 142054Z AUTO 35007KT 10SM FEW110 27/16 A3004 RMK AO2 SLP170 T02670156 56002
KFZY 141954Z AUTO 31006KT 10SM BKN060 OVC085 29/17 A3005 RMK AO2 LTG DSNT N AND NE SLP171 T02940167
KFZY 141854Z AUTO VRB05KT 10SM FEW100 30/16 A3003 RMK AO2 SLP166 T03000156
KFZY 141754Z AUTO 27004KT 10SM FEW075 BKN100 29/15 A3005 RMK AO2 SLP171 T02890150 10289 20239 58004
KFZY 141654Z AUTO 29007KT 250V310 10SM SCT085 28/16 A3006 RMK AO2 SLP177 T02780156
KFZY 141554Z AUTO 28007KT 10SM BKN080 28/14 A3007 RMK AO2 SLP177 T02830144
KFZY 141454Z AUTO 29007KT 10SM FEW075 28/15 A3006 RMK AO2 SLP175 T02830150 55001
KFZY 141354Z AUTO 24008KT 10SM CLR 28/16 A3006 RMK AO2 SLP175 T02780161
KFZY 141254Z AUTO 22006KT 10SM CLR 26/17 A3006 RMK AO2 SLP177 T02560167
KFZY 141154Z AUTO 21006KT 10SM FEW080 BKN110 24/16 A3006 RMK AO2 SLP177 60000 T02390161 10244 20228 50003
KFZY 141054Z AUTO 21005KT 10SM SCT060 OVC090 23/16 A3007 RMK AO2 RAB41E54 SLP177 P0000 T02280156
KFZY 140954Z AUTO 20005KT 10SM FEW060 BKN120 24/14 A3006 RMK AO2 SLP174 T02390144
KFZY 140854Z AUTO 19005KT 10SM SCT075 BKN100 24/14 A3006 RMK AO2 SLP174 T02390144 55005
KFZY 140754Z AUTO 20006KT 10SM BKN080 24/14 A3005 RMK AO2 SLP174 T02440139
KFZY 140654Z AUTO 20008KT 10SM OVC095 24/14 A3007 RMK AO2 SLP177 T02440139
KFZY 140554Z AUTO 18007KT 10SM CLR 24/14 A3007 RMK AO2 SLP179 T02390139 10261 20222 58004
KFZY 140454Z AUTO 18006KT 10SM OVC110 24/14 A3009 RMK AO2 SLP185 T02390144 403170128
KFZY 140354Z AUTO VRB03KT 10SM BKN110 23/14 A3008 RMK AO2 SLP184 T02280144
KFZY 140254Z AUTO 14003KT 10SM FEW070 24/14 A3008 RMK AO2 SLP183 T02440139 58004
KFZY 140154Z AUTO 00000KT 10SM CLR 25/14 A3009 RMK AO2 SLP188 T02500139
KFZY 140054Z AUTO 00000KT 10SM CLR 24/14 A3009 RMK AO2 SLP187 T02390144
KFZY 132354Z AUTO 07003KT 10SM CLR 26/13 A3010 RMK AO2 SLP189 T02610133 10317 20261 56013
KFZY 132254Z AUTO 00000KT 10SM CLR 30/12 A3011 RMK AO2 SLP193 T03000117
KFZY 132154Z AUTO VRB05KT 10SM BKN110 31/10 A3012 RMK AO2 SLP197 T03060100
KFZY 132054Z AUTO 23008G15KT 10SM CLR 31/11 A3014 RMK AO2 SLP202 T03110111 56014
KFZY 131954Z AUTO 21005KT 10SM CLR 31/11 A3015 RMK AO2 SLP206 T03110106
KFZY 131854Z AUTO VRB04KT 10SM FEW120 31/11 A3016 RMK AO2 SLP209 T03110111
KFZY 131754Z AUTO 18007KT 10SM CLR 29/11 A3018 RMK AO2 SLP217 T02940106 10311 20189 56015
KFZY 131654Z AUTO 20006KT 10SM CLR 30/11 A3019 RMK AO2 SLP221 T03000106 $
KFZY 131554Z AUTO 21006KT 10SM CLR 29/11 A3021 RMK AO2 SLP228 T02890106 $
KFZY 131454Z AUTO VRB05KT 10SM CLR 27/13 A3023 RMK AO2 SLP232 T02720128 56006 $
KFZY 131354Z AUTO 17005KT 10SM CLR 24/13 A3023 RMK AO2 SLP235 T02440128 $
KFZY 131254Z AUTO VRB03KT 10SM 22/13 A3023 RMK AO2 SLP235 T02170128 $
KFZY 131154Z AUTO VRB03KT 10SM CLR 19/12 A3024 RMK AO2 SLP240 T01890122 10189 20128 51008
KFZY 131054Z AUTO VRB04KT 10SM CLR 17/12 A3024 RMK AO2 SLP237 T01670117
KFZY 130954Z AUTO 00000KT 10SM CLR 14/11 A3023 RMK AO2 SLP234 T01390111
KFZY 130854Z AUTO 13004KT 10SM CLR 15/12 A3022 RMK AO2 SLP230 T01500117 53001
KFZY 130754Z AUTO 00000KT 9SM CLR 13/11 A3021 RMK AO2 SLP230 T01280106
KFZY 130654Z AUTO 00000KT 10SM CLR 13/11 A3021 RMK AO2 SLP227 T01330111
KFZY 130554Z AUTO 00000KT 10SM CLR 14/11 A3021 RMK AO2 SLP229 T01390111 10228 20133 56001